| time (UTC) | temp F | wind direction | speed MPH | gust MPH | rain 1hr in | rain 24hr in | rain mn in | humidity % | barometer mb |
| 20260505211530 | 80 | 2 | 2.0 | 9.0 | 0.00 | 0.00 | 0.00 | 39 | 1013.9 |
| 20260505204536 | 79 | 29 | 2.0 | 6.0 | 0.00 | 0.00 | 0.00 | 42 | 1014.1 |
| 20260505203038 | 78 | 9 | 1.0 | 7.0 | 0.00 | 0.00 | 0.00 | 43 | 1014.2 |
| 20260505201534 | 77 | 359 | 2.0 | 7.0 | 0.00 | 0.00 | 0.00 | 43 | 1014.2 |
| 20260505200037 | 77 | 13 | 2.0 | 8.0 | 0.00 | 0.00 | 0.00 | 45 | 1014.2 |
| 20260505193035 | 75 | 359 | 2.0 | 10.0 | 0.00 | 0.00 | 0.00 | 49 | 1014.4 |
| 20260505191537 | 74 | 11 | 1.0 | 6.0 | 0.00 | 0.00 | 0.00 | 51 | 1014.4 |
| 20260505190035 | 73 | 14 | 1.0 | 7.0 | 0.00 | 0.00 | 0.00 | 51 | 1014.6 |
| 20260505184535 | 72 | 9 | 2.0 | 6.0 | 0.00 | 0.00 | 0.00 | 53 | 1014.6 |
| 20260505181535 | 70 | 351 | 1.0 | 9.0 | 0.00 | 0.00 | 0.00 | 57 | 1014.6 |
| 20260505180032 | 68 | 317 | 1.0 | 7.0 | 0.00 | 0.00 | 0.00 | 58 | 1014.6 |
| 20260505174610 | 68 | 324 | 1.0 | 7.0 | 0.00 | 0.00 | 0.00 | 60 | 1014.6 |
| 20260505173031 | 67 | 13 | 1.0 | 7.0 | 0.00 | 0.00 | 0.00 | 63 | 1014.5 |
| 20260505171609 | 65 | 360 | 1.0 | 6.0 | 0.00 | 0.00 | 0.00 | 64 | 1014.5 |
| 20260505170037 | 65 | 46 | 1.0 | 7.0 | 0.00 | 0.00 | 0.00 | 65 | 1014.5 |
| 20260505164535 | 64 | 60 | 2.0 | 7.0 | 0.00 | 0.00 | 0.00 | 67 | 1014.5 |
| 20260505163035 | 63 | 38 | 1.0 | 7.0 | 0.00 | 0.00 | 0.00 | 70 | 1014.5 |
| 20260505153143 | 59 | 14 | 0.0 | 3.0 | 0.00 | 0.00 | 0.00 | 76 | 1014.2 |
| 20260505151536 | 59 | 3 | 0.0 | 3.0 | 0.00 | 0.00 | 0.00 | 79 | 1014.2 |
| 20260505124535 | 49 | 302 | 0.0 | 2.0 | 0.00 | 0.00 | 0.00 | 80 | 1012.7 |
| 20260505121532 | 50 | 315 | 0.0 | 3.0 | 0.00 | 0.00 | 0.00 | 80 | 1012.6 |
| 20260505120045 | 50 | 315 | 0.0 | 1.0 | 0.00 | 0.00 | 0.00 | 79 | 1012.5 |
| 20260505120036 | 51 | 313 | 0.0 | 3.0 | 0.00 | 0.00 | 0.00 | 79 | 1012.4 |
| 20260505110110 | 52 | 292 | 0.0 | 1.0 | 0.00 | 0.00 | 0.00 | 77 | 1012.1 |
| 20260505101536 | 52 | 292 | 0.0 | 2.0 | 0.00 | 0.00 | 0.00 | 76 | 1011.9 |
| 20260505094535 | 54 | 292 | 0.0 | 0.0 | 0.00 | 0.00 | 0.00 | 74 | 1011.9 |
| 20260505093036 | 54 | 290 | 0.0 | 2.0 | 0.00 | 0.00 | 0.00 | 72 | 1011.8 |
| 20260505091535 | 55 | 270 | 0.0 | 0.0 | 0.00 | 0.00 | 0.00 | 72 | 1011.7 |
| 20260505090035 | 55 | 270 | 0.0 | 2.0 | 0.00 | 0.00 | 0.00 | 70 | 1011.6 |
| 20260505084532 | 56 | 290 | 0.0 | 4.0 | 0.00 | 0.00 | 0.00 | 69 | 1011.7 |
| 20260505081536 | 58 | 321 | 0.0 | 2.0 | 0.00 | 0.00 | 0.00 | 65 | 1011.7 |
| 20260505080110 | 60 | 300 | 0.0 | 5.0 | 0.00 | 0.00 | 0.00 | 63 | 1011.7 |
| 20260505073036 | 61 | 310 | 1.0 | 5.0 | 0.00 | 0.00 | 0.00 | 62 | 1011.5 |
| 20260505071608 | 62 | 327 | 1.0 | 5.0 | 0.00 | 0.00 | 0.00 | 59 | 1011.4 |
| 20260505070111 | 63 | 304 | 0.0 | 8.0 | 0.00 | 0.00 | 0.00 | 59 | 1011.3 |
| 20260505064534 | 64 | 248 | 3.0 | 11.0 | 0.00 | 0.00 | 0.00 | 58 | 1011.1 |
| 20260505060040 | 64 | 257 | 2.0 | 12.0 | 0.00 | 0.00 | 0.00 | 54 | 1011.1 |
| 20260505053036 | 65 | 245 | 5.0 | 14.0 | 0.00 | 0.00 | 0.00 | 52 | 1010.8 |
| 20260505051539 | 65 | 253 | 4.0 | 13.0 | 0.00 | 0.00 | 0.00 | 50 | 1010.7 |
| 20260505050108 | 66 | 241 | 6.0 | 17.0 | 0.00 | 0.00 | 0.00 | 49 | 1010.6 |
| 20260505041537 | 66 | 237 | 6.0 | 14.0 | 0.00 | 0.00 | 0.00 | 45 | 1010.3 |
| 20260505040050 | 66 | 236 | 6.0 | 16.0 | 0.00 | 0.00 | 0.00 | 44 | 1010.1 |
| 20260505034534 | 67 | 240 | 5.0 | 18.0 | 0.00 | 0.00 | 0.00 | 43 | 1010.0 |
| 20260505033036 | 68 | 257 | 3.0 | 10.0 | 0.00 | 0.00 | 0.00 | 41 | 1009.8 |
| 20260505023036 | 71 | 241 | 6.0 | 15.0 | 0.00 | 0.00 | 0.00 | 35 | 1009.3 |
| 20260505021530 | 73 | 245 | 5.0 | 15.0 | 0.00 | 0.00 | 0.00 | 32 | 1009.2 |
| 20260505020110 | 74 | 239 | 5.0 | 15.0 | 0.00 | 0.00 | 0.00 | 31 | 1009.1 |
| 20260505014536 | 75 | 235 | 7.0 | 23.0 | 0.00 | 0.00 | 0.00 | 30 | 1009.2 |
| 20260505010038 | 78 | 233 | 6.0 | 14.0 | 0.00 | 0.00 | 0.00 | 29 | 1009.3 |
| 20260505004535 | 80 | 232 | 6.0 | 16.0 | 0.00 | 0.00 | 0.00 | 28 | 1009.3 |
| 20260505003036 | 81 | 235 | 4.0 | 13.0 | 0.00 | 0.00 | 0.00 | 27 | 1009.3 |
| 20260505001536 | 81 | 245 | 3.0 | 13.0 | 0.00 | 0.00 | 0.00 | 25 | 1009.4 |
| 20260505000041 | 81 | 253 | 4.0 | 14.0 | 0.00 | 0.00 | 0.00 | 24 | 1009.4 |
| 20260504234535 | 83 | 249 | 6.0 | 12.0 | 0.00 | 0.00 | 0.00 | 25 | 1009.4 |
| 20260504233036 | 83 | 252 | 4.0 | 12.0 | 0.00 | 0.00 | 0.00 | 25 | 1009.4 |
| 20260504231535 | 83 | 252 | 3.0 | 12.0 | 0.00 | 0.00 | 0.00 | 25 | 1009.5 |
| 20260504230035 | 84 | 288 | 4.0 | 12.0 | 0.00 | 0.00 | 0.00 | 23 | 1009.6 |
| 20260504224532 | 84 | 248 | 0.0 | 6.0 | 0.00 | 0.00 | 0.00 | 24 | 1009.7 |
| 20260504221536 | 83 | 318 | 3.0 | 13.0 | 0.00 | 0.00 | 0.00 | 26 | 1010.0 |
| 20260504220107 | 83 | 302 | 2.0 | 9.0 | 0.00 | 0.00 | 0.00 | 26 | 1010.2 |
| 20260504214531 | 83 | 311 | 3.0 | 13.0 | 0.00 | 0.00 | 0.00 | 26 | 1010.3 |
| 20260504213035 | 83 | 349 | 1.0 | 11.0 | 0.00 | 0.00 | 0.00 | 25 | 1010.5 |